Kezdőlap
METAR-TAF:

METAR-TAF

Repülőterek :

Mesa, Arizona, Amerikai Egyesült Államok

földrajzi szélesség: 33-28N, földrajzi hosszúság: 111-44W, magasság: 424 m

Jelenlegi meteorológiai megfigyelések

A jelentés 57 perccel ezelõtt készült, 11:54 UTC
Északkeleti szél 3 kt
Hőmérséklet 23°C
Páratartalom 22%
Légköri nyomás 1012 hPa
Látótávolság: 16.1 km
Derült ég

METAR: KFFZ 271154Z AUTO 04003KT 10SM CLR 23/00 A2989 RMK AO2 SLP098 T02280000 10267 20222 53008

Idő: 05:51 (12:51 UTC)


TAF: hiányzik

Meteorológiai megfigyelések és előrejelzések több, mint 4000 repülőtéren (METAR és TAF jelentéseket).

A térképen piros és sárga pontok jelzik az elérhető meteorológiai állomásokat.

Mozgassa az egeret a pont fölött, hogy megjelenjen az állomás neve.

Azután kattintson az időjárási megfigyelések és előrejelzések megtekintéséhez.

A térkép megváltoztatása: kattintson a fekete keresztel jelölt zöld gombra ráközelítéshez, a vonallal jelölt zöld gombra távolításhoz, vagy a zöld nyilakra a szomszédos térképek eléréséhez.


METAR-TAF: